About

Name: Mason Co
Identifier:  LDM/KLDM
Serves:  Ludington
Owner:  Mason County
Public/Private:  Public
Local Time:  26. Jan 21:36 EST
Description: Coordinates: 43°57′45″N 086°24′28″W / 43.96250°N 86.40778°W / 43.96250; -86.40778
Source: Wikipedia

Location

Mason Co

Runways
Identifier Length (m/ft) Surface
8/26 5,003/5,003 Asphalt
1/19 3,503/3,503 Asphalt

Statistics

Flights Per Day:
0 Flights
Distance: 210km (130mi)
Flights Delayed:
75% (0 Flights/Day Delayed)
Average Delay: 37 minutes

Current Weather

 1 C (Humidity: 100%)
  0kt (0km/h / 0mph) from 0°
  Broken clouds at 600 feet (182 meter)
  Broken clouds at 1,500 feet (457 meter)
  Overcast at 3,600 feet (1,097 meter)
  16km (10 mi.)
 METAR KLDM 270215Z AUTO 00000KT 10SM BKN006 BKN015 OVC036 01/01 A2984 RMK AO2 T00050005

Claim Compensation

Claim compensation for your flight delay or cancellation
Flight delays happen, but that doesn’t mean you have to accept them. You may be entitled to as much as €600/$700 in compensation if your flight has been delayed, canceled or overbooked within the last three years.

Current Delays

Departures

N/A

Arrivals

N/A

Destinations

Map

Top Destinations

Airport Flights
per week
Seats
per week
  Lansing (LAN) 3 - 0 0
  Muskegon (MKG) 0 - 0 0

Airlines & Planes

Top Airlines

Airline Flights
per day
Seats
per day
Martinaire 0 -

Top Models

model Flights seats
Cessna C208 0.6/day - 0